createdAt,value
2019-05-20T00:01:13.646Z,19.10
2019-05-20T00:03:41.782Z,18.00
2019-05-20T00:06:10.152Z,19.30
2019-05-20T00:08:38.699Z,18.77
2019-05-20T00:11:07.354Z,19.90
2019-05-20T00:13:35.894Z,20.23
2019-05-20T00:16:04.136Z,18.90
2019-05-20T00:18:32.608Z,19.67
2019-05-20T00:21:00.736Z,19.23
2019-05-20T00:23:29.169Z,19.50
2019-05-20T00:25:57.909Z,20.07
2019-05-20T00:28:26.165Z,20.00
2019-05-20T00:30:54.602Z,20.53
2019-05-20T00:33:22.739Z,21.37
2019-05-20T00:35:51.110Z,21.73
2019-05-20T00:38:19.280Z,22.10
2019-05-20T00:40:47.530Z,21.97
2019-05-20T00:43:15.692Z,23.03
2019-05-20T00:45:43.868Z,22.43
2019-05-20T00:48:12.046Z,22.93
2019-05-20T00:50:40.692Z,23.77
2019-05-20T00:53:08.868Z,23.53
2019-05-20T00:55:39.005Z,22.77
2019-05-20T00:58:07.159Z,23.80
2019-05-20T01:00:35.720Z,24.97
2019-05-20T01:03:04.086Z,25.30
2019-05-20T01:05:32.917Z,25.40
2019-05-20T01:08:01.042Z,25.17
2019-05-20T01:10:29.342Z,24.53
2019-05-20T01:12:57.469Z,25.77
2019-05-20T01:15:25.813Z,25.73
2019-05-20T01:17:54.046Z,25.10
2019-05-20T01:20:22.578Z,27.50
2019-05-20T01:22:50.792Z,26.77
2019-05-20T01:25:20.430Z,26.07
2019-05-20T01:27:48.674Z,27.53
2019-05-20T01:30:19.185Z,28.00
2019-05-20T01:32:47.347Z,27.57
2019-05-20T01:35:15.566Z,27.37
2019-05-20T01:37:43.862Z,28.00
2019-05-20T01:40:13.281Z,29.50
2019-05-20T01:42:41.864Z,28.70
2019-05-20T01:45:11.105Z,30.37
2019-05-20T01:47:39.322Z,29.30
2019-05-20T01:50:09.191Z,28.50
2019-05-20T01:52:37.463Z,29.83
2019-05-20T01:55:06.284Z,28.87
2019-05-20T01:57:34.455Z,29.90
2019-05-20T02:00:04.152Z,28.93
2019-05-20T02:02:32.321Z,29.90
2019-05-20T02:05:00.820Z,29.73
2019-05-20T02:07:28.992Z,30.47
2019-05-20T02:09:57.101Z,30.97
2019-05-20T02:12:25.362Z,29.73
2019-05-20T02:15:06.074Z,30.93
2019-05-20T02:17:34.443Z,30.00
2019-05-20T02:20:03.449Z,29.23
2019-05-20T02:22:31.754Z,31.30
2019-05-20T02:25:00.642Z,29.37
2019-05-20T02:27:28.877Z,29.93
2019-05-20T02:29:57.068Z,30.17
2019-05-20T02:32:25.226Z,30.80
2019-05-20T02:34:53.947Z,30.70
2019-05-20T02:37:22.799Z,30.43
2019-05-20T02:39:50.946Z,30.67
2019-05-20T02:42:19.235Z,31.07
2019-05-20T02:44:47.853Z,29.80
2019-05-20T02:47:16.437Z,29.33
2019-05-20T02:49:44.822Z,32.03
2019-05-20T02:52:13.022Z,30.90
2019-05-20T02:54:41.581Z,31.10
2019-05-20T02:57:09.719Z,30.13
2019-05-20T02:59:37.855Z,31.50
2019-05-20T03:02:06.100Z,30.80
2019-05-20T03:04:34.312Z,31.10
2019-05-20T03:07:02.550Z,31.67
2019-05-20T03:09:31.548Z,29.20
2019-05-20T03:11:59.748Z,29.40
2019-05-20T03:14:28.224Z,27.80
2019-05-20T03:16:56.479Z,27.47
2019-05-20T03:19:24.905Z,29.90
2019-05-20T03:21:53.443Z,28.90
2019-05-20T03:24:22.808Z,28.50
2019-05-20T03:26:51.175Z,29.73
2019-05-20T03:29:20.218Z,30.33
2019-05-20T03:31:48.672Z,31.17
2019-05-20T03:34:43.160Z,32.37
2019-05-20T03:36:48.167Z,30.53
2019-05-20T03:39:16.819Z,32.30
2019-05-20T03:41:44.966Z,31.10
2019-05-20T03:44:13.214Z,30.43
2019-05-20T03:46:41.437Z,32.13
2019-05-20T03:49:10.095Z,30.67
2019-05-20T03:51:38.924Z,33.73
2019-05-20T03:54:07.408Z,32.67
2019-05-20T03:56:35.953Z,33.13
2019-05-20T03:59:04.676Z,33.13
2019-05-20T04:01:33.119Z,33.10
2019-05-20T04:04:02.619Z,33.03
2019-05-20T04:06:30.874Z,31.33
2019-05-20T04:08:59.551Z,32.63
2019-05-20T04:11:27.816Z,31.20
2019-05-20T04:13:56.285Z,32.90
2019-05-20T04:16:24.485Z,31.23
2019-05-20T04:18:54.171Z,33.47
2019-05-20T04:21:23.114Z,32.20
2019-05-20T04:23:51.362Z,33.20
2019-05-20T04:26:20.198Z,33.87
2019-05-20T04:28:48.905Z,32.73
2019-05-20T04:31:17.183Z,32.70
2019-05-20T04:33:45.505Z,33.57
2019-05-20T04:36:13.784Z,35.73
2019-05-20T04:38:41.977Z,33.93
2019-05-20T04:41:10.670Z,36.53
2019-05-20T04:43:38.817Z,37.07
2019-05-20T04:46:07.042Z,36.57
2019-05-20T04:48:35.212Z,35.40
2019-05-20T04:51:03.698Z,36.30
2019-05-20T04:53:31.853Z,35.70
2019-05-20T04:56:00.668Z,36.43
2019-05-20T04:58:28.896Z,35.10
2019-05-20T05:00:58.499Z,35.37
2019-05-20T05:03:27.153Z,33.93
2019-05-20T05:05:55.519Z,36.03
2019-05-20T05:08:24.385Z,36.03
2019-05-20T05:10:52.908Z,34.97
2019-05-20T05:13:23.162Z,36.27
2019-05-20T05:15:51.398Z,33.23
2019-05-20T05:18:20.183Z,32.40
2019-05-20T05:20:48.432Z,32.87
2019-05-20T05:23:16.828Z,33.27
2019-05-20T05:25:45.724Z,31.77
2019-05-20T05:28:14.313Z,31.80
2019-05-20T05:30:45.056Z,31.97
2019-05-20T05:33:13.321Z,31.47
2019-05-20T05:35:52.769Z,32.97
2019-05-20T05:38:12.168Z,31.30
2019-05-20T05:40:40.351Z,30.37
2019-05-20T05:43:08.982Z,30.27
2019-05-20T05:45:37.749Z,28.07
2019-05-20T05:48:06.578Z,27.97
2019-05-20T05:50:34.767Z,28.10
2019-05-20T05:53:03.854Z,27.43
2019-05-20T05:55:32.334Z,27.30
2019-05-20T05:58:00.506Z,27.60
2019-05-20T06:00:29.024Z,26.80
2019-05-20T06:02:57.169Z,26.43
2019-05-20T06:05:25.716Z,26.83
2019-05-20T06:07:53.930Z,27.57
2019-05-20T06:10:22.277Z,27.67
2019-05-20T06:12:51.226Z,26.73
2019-05-20T06:15:38.013Z,26.60
2019-05-20T06:18:06.427Z,26.03
2019-05-20T06:20:35.218Z,27.23
2019-05-20T06:23:03.455Z,26.37
2019-05-20T06:25:31.843Z,26.80
2019-05-20T06:28:00.210Z,25.80
2019-05-20T06:30:42.044Z,27.27
2019-05-20T06:33:10.740Z,24.90
2019-05-20T06:35:39.324Z,25.67
2019-05-20T06:38:12.013Z,24.27
2019-05-20T06:40:40.220Z,25.37
2019-05-20T06:43:08.483Z,24.47
2019-05-20T06:45:36.808Z,25.60
2019-05-20T06:48:05.228Z,25.53
2019-05-20T06:50:33.524Z,26.63
2019-05-20T06:53:01.878Z,27.07
2019-05-20T06:55:30.203Z,25.20
2019-05-20T06:57:58.564Z,25.40
2019-05-20T07:00:36.722Z,25.90
2019-05-20T07:03:06.487Z,25.47
2019-05-20T07:05:34.674Z,24.53
2019-05-20T07:08:02.888Z,23.53
2019-05-20T07:10:31.110Z,23.83
2019-05-20T07:13:00.214Z,24.40
2019-05-20T07:15:28.356Z,25.10
2019-05-20T07:17:57.184Z,23.37
2019-05-20T07:20:25.537Z,24.30
2019-05-20T07:22:56.244Z,24.00
2019-05-20T07:25:24.079Z,22.57
2019-05-20T07:27:52.293Z,22.00
2019-05-20T07:30:20.992Z,22.33
2019-05-20T07:32:49.419Z,19.50
2019-05-20T07:35:29.808Z,20.97
2019-05-20T07:37:48.631Z,19.47
2019-05-20T07:40:29.835Z,21.23
2019-05-20T07:42:59.141Z,19.67
2019-05-20T07:45:32.117Z,19.40
2019-05-20T07:48:01.236Z,17.77
2019-05-20T07:50:29.885Z,17.67
2019-05-20T07:53:00.548Z,17.23
2019-05-20T07:55:40.989Z,17.85
2019-05-20T07:58:11.648Z,17.60
2019-05-20T08:00:40.539Z,17.03
2019-05-20T08:03:09.084Z,16.33
2019-05-20T08:05:37.243Z,16.67
2019-05-20T08:08:05.956Z,16.63
2019-05-20T08:10:34.207Z,16.47
2019-05-20T08:13:02.689Z,16.10
2019-05-20T08:15:30.924Z,15.73
2019-05-20T08:17:59.665Z,16.40
2019-05-20T08:20:28.012Z,17.13
2019-05-20T08:22:56.257Z,15.57
2019-05-20T08:25:24.763Z,15.37
2019-05-20T08:27:53.411Z,16.30
2019-05-20T08:30:32.644Z,15.33
2019-05-20T08:33:01.563Z,15.87
2019-05-20T08:35:29.820Z,16.53
2019-05-20T08:37:58.191Z,15.63
2019-05-20T08:40:26.440Z,15.73
2019-05-20T08:42:54.697Z,16.00
2019-05-20T08:45:22.885Z,15.33
2019-05-20T08:47:51.123Z,16.23
2019-05-20T08:50:19.740Z,16.30
2019-05-20T08:52:47.917Z,15.97
2019-05-20T08:55:16.820Z,16.00
2019-05-20T08:57:44.976Z,15.90
2019-05-20T09:00:23.289Z,16.57
2019-05-20T09:02:51.417Z,15.93
2019-05-20T09:05:19.642Z,16.97
2019-05-20T09:08:02.459Z,17.20
2019-05-20T09:10:20.423Z,16.80
2019-05-20T09:12:49.152Z,17.10
2019-05-20T09:15:22.164Z,16.10
2019-05-20T09:17:50.533Z,15.83
2019-05-20T09:20:19.440Z,16.53
2019-05-20T09:26:19.571Z,15.30
2019-05-20T09:28:48.066Z,16.13
2019-05-20T09:31:16.608Z,15.83
2019-05-20T09:33:45.820Z,14.67
2019-05-20T09:36:14.170Z,15.63
2019-05-20T09:38:42.353Z,15.53
2019-05-20T09:41:10.739Z,15.20
2019-05-20T09:43:39.050Z,16.77
2019-05-20T09:46:08.639Z,15.17
2019-05-20T09:48:37.314Z,15.73
2019-05-20T09:51:05.499Z,16.30
2019-05-20T09:53:33.839Z,14.67
2019-05-20T09:56:02.789Z,14.50
2019-05-20T09:58:33.310Z,15.23
2019-05-20T10:01:02.465Z,13.40
2019-05-20T10:03:31.086Z,13.97
2019-05-20T10:06:01.255Z,15.80
2019-05-20T10:08:38.914Z,15.10
2019-05-20T10:11:00.557Z,14.50
2019-05-20T10:13:29.924Z,14.27
2019-05-20T10:15:58.544Z,15.37
2019-05-20T10:18:36.587Z,14.87
2019-05-20T10:20:57.102Z,16.03
2019-05-20T10:23:26.067Z,15.20
2019-05-20T10:25:54.314Z,16.20
2019-05-20T10:28:22.455Z,16.13
2019-05-20T10:30:51.415Z,16.00
2019-05-20T10:33:19.537Z,15.73
2019-05-20T10:35:48.332Z,15.33
2019-05-20T10:38:16.472Z,14.33
2019-05-20T10:40:44.874Z,14.83
2019-05-20T10:43:13.101Z,14.57
2019-05-20T10:45:41.845Z,15.07
2019-05-20T10:48:10.005Z,14.83
2019-05-20T10:50:38.557Z,14.67
2019-05-20T10:53:06.711Z,15.17
2019-05-20T10:55:35.378Z,15.03
2019-05-20T10:58:03.626Z,13.60
2019-05-20T11:00:31.810Z,14.93
2019-05-20T11:03:00.261Z,15.03
2019-05-20T11:05:28.625Z,14.23
2019-05-20T11:07:57.993Z,14.10
2019-05-20T11:10:26.489Z,13.90
2019-05-20T11:12:54.698Z,13.87
2019-05-20T11:15:23.265Z,12.83
2019-05-20T11:17:51.394Z,14.37
2019-05-20T11:20:19.722Z,13.70
2019-05-20T11:22:47.869Z,14.83
2019-05-20T11:25:16.489Z,14.17
2019-05-20T11:27:44.659Z,14.53
2019-05-20T11:30:13.951Z,14.10
2019-05-20T11:32:42.599Z,13.97
2019-05-20T11:35:11.582Z,14.00
2019-05-20T11:37:40.352Z,14.23
2019-05-20T11:40:10.185Z,14.60
2019-05-20T11:42:38.920Z,15.20
2019-05-20T11:45:09.969Z,13.70
2019-05-20T11:47:38.122Z,14.27
2019-05-20T11:50:06.714Z,13.70
2019-05-20T11:52:35.199Z,14.93
2019-05-20T11:55:03.771Z,14.93
2019-05-20T11:57:32.000Z,13.43
2019-05-20T12:00:00.267Z,13.87
2019-05-20T12:02:28.694Z,14.27
2019-05-20T12:04:56.869Z,12.93
2019-05-20T12:07:25.197Z,12.60
2019-05-20T12:09:53.470Z,12.97
2019-05-20T12:12:22.050Z,12.97
2019-05-20T12:14:50.484Z,12.80
2019-05-20T12:17:18.607Z,12.77
2019-05-20T12:19:46.887Z,12.13
2019-05-20T12:22:15.157Z,13.03
2019-05-20T12:24:43.328Z,11.90
2019-05-20T12:27:11.544Z,12.10
2019-05-20T12:29:40.498Z,13.07
2019-05-20T12:32:08.972Z,11.43
2019-05-20T12:34:37.345Z,11.47
2019-05-20T12:37:05.519Z,12.47
2019-05-20T12:39:34.149Z,11.53
2019-05-20T12:42:02.583Z,12.67
2019-05-20T12:44:30.861Z,11.87
2019-05-20T12:46:59.055Z,13.27
2019-05-20T12:49:27.505Z,11.70
2019-05-20T12:51:56.019Z,12.80
2019-05-20T12:54:24.210Z,11.87
2019-05-20T12:56:52.443Z,11.20
2019-05-20T12:59:20.887Z,11.50
2019-05-20T13:01:49.141Z,11.07
2019-05-20T13:04:17.364Z,10.63
2019-05-20T13:06:45.543Z,9.83
2019-05-20T13:09:15.080Z,10.83
2019-05-20T13:11:43.263Z,10.43
2019-05-20T13:14:11.619Z,11.37
2019-05-20T13:16:39.859Z,10.87
2019-05-20T13:19:08.022Z,11.43
2019-05-20T13:21:36.182Z,11.43
2019-05-20T13:24:05.573Z,10.13
2019-05-20T13:26:34.919Z,11.40
2019-05-20T13:29:03.676Z,9.47
2019-05-20T13:31:32.187Z,9.40
2019-05-20T13:34:00.671Z,9.70
2019-05-20T13:36:29.581Z,9.80
2019-05-20T13:38:57.988Z,10.70
2019-05-20T13:41:26.277Z,10.37
2019-05-20T13:43:54.403Z,9.80
2019-05-20T13:46:22.569Z,10.80
2019-05-20T13:48:50.837Z,10.47
2019-05-20T13:51:19.513Z,10.97
2019-05-20T13:53:47.666Z,9.83
2019-05-20T13:56:16.029Z,10.40
2019-05-20T13:58:44.263Z,9.80
2019-05-20T14:01:13.330Z,9.60
2019-05-20T14:03:42.013Z,9.77
2019-05-20T14:06:11.014Z,9.17
2019-05-20T14:08:39.355Z,9.03
2019-05-20T14:11:07.865Z,8.33
2019-05-20T14:13:36.377Z,7.90
2019-05-20T14:16:04.675Z,8.77
2019-05-20T14:18:32.846Z,7.63
2019-05-20T14:21:01.350Z,7.13
2019-05-20T14:23:29.471Z,7.53
2019-05-20T14:25:57.686Z,7.70
2019-05-20T14:28:26.317Z,7.90
2019-05-20T14:30:54.479Z,9.07
2019-05-20T14:33:22.735Z,8.40
2019-05-20T14:35:51.006Z,7.57
2019-05-20T14:38:19.264Z,8.53
2019-05-20T14:40:47.864Z,7.73
2019-05-20T14:43:16.705Z,8.87
2019-05-20T14:45:45.073Z,12.00
2019-05-20T14:48:14.690Z,7.30
2019-05-20T14:50:43.392Z,6.93
2019-05-20T14:53:11.944Z,6.57
2019-05-20T14:55:42.611Z,7.70
2019-05-20T14:58:11.161Z,6.23
2019-05-20T15:00:39.765Z,6.10
2019-05-20T15:03:08.057Z,6.60
2019-05-20T15:05:36.818Z,7.43
2019-05-20T15:08:05.111Z,7.73
2019-05-20T15:10:33.872Z,7.30
2019-05-20T15:13:02.082Z,8.00
2019-05-20T15:15:30.800Z,7.47
2019-05-20T15:17:59.466Z,7.67
2019-05-20T15:20:27.628Z,6.50
2019-05-20T15:22:55.766Z,8.07
2019-05-20T15:25:24.325Z,6.97
2019-05-20T15:27:52.651Z,7.93
2019-05-20T15:30:20.931Z,8.33
2019-05-20T15:32:49.134Z,8.77
2019-05-20T15:35:17.550Z,9.40
2019-05-20T15:37:46.039Z,8.50
2019-05-20T15:40:14.469Z,8.17
2019-05-20T15:42:42.720Z,8.70
2019-05-20T15:45:11.876Z,8.57
2019-05-20T15:47:40.063Z,8.17
2019-05-20T15:50:10.401Z,7.03
2019-05-20T15:52:39.110Z,6.80
2019-05-20T15:55:07.840Z,5.73
2019-05-20T15:57:35.943Z,6.00
2019-05-20T16:00:05.515Z,7.33
2019-05-20T16:02:33.667Z,6.23
2019-05-20T16:05:01.917Z,5.80
2019-05-20T16:07:30.035Z,6.03
2019-05-20T16:09:58.477Z,7.40
2019-05-20T16:12:27.190Z,6.83
2019-05-20T16:14:57.395Z,7.17
2019-05-20T16:17:27.452Z,7.67
2019-05-20T16:19:55.568Z,7.57
2019-05-20T16:22:23.837Z,7.20
2019-05-20T16:24:52.200Z,6.53
2019-05-20T16:27:22.638Z,6.87
2019-05-20T16:30:05.604Z,6.10
2019-05-20T16:32:21.668Z,5.90
2019-05-20T16:34:50.180Z,6.83
2019-05-20T16:37:18.481Z,7.60
2019-05-20T16:39:46.710Z,7.57
2019-05-20T16:42:15.125Z,7.90
2019-05-20T16:44:47.458Z,8.27
2019-05-20T16:47:15.619Z,9.03
2019-05-20T16:49:43.771Z,6.50
2019-05-20T16:52:13.047Z,7.10
2019-05-20T16:54:41.574Z,7.03
2019-05-20T16:57:10.645Z,6.30
2019-05-20T16:59:40.224Z,6.63
2019-05-20T17:02:08.842Z,6.50
2019-05-20T17:04:36.993Z,6.87
2019-05-20T17:07:05.774Z,8.63
2019-05-20T17:09:33.904Z,7.97
2019-05-20T17:12:02.295Z,8.10
2019-05-20T17:14:30.514Z,9.30
2019-05-20T17:16:58.727Z,9.03
2019-05-20T17:19:27.511Z,9.37
2019-05-20T17:21:56.145Z,8.37
2019-05-20T17:24:24.591Z,8.43
2019-05-20T17:26:53.048Z,8.30
2019-05-20T17:29:21.187Z,8.40
2019-05-20T17:31:49.607Z,9.43
2019-05-20T17:34:17.792Z,9.70
2019-05-20T17:36:46.710Z,8.87
2019-05-20T17:39:16.194Z,8.77
2019-05-20T17:41:45.109Z,10.23
2019-05-20T17:44:13.298Z,10.10
2019-05-20T17:46:41.461Z,10.13
2019-05-20T17:49:10.151Z,10.30
2019-05-20T17:51:38.818Z,10.63
2019-05-20T17:54:07.301Z,9.93
2019-05-20T17:56:35.857Z,10.37
2019-05-20T17:59:04.189Z,10.27
2019-05-20T18:01:32.868Z,10.97
2019-05-20T18:04:01.010Z,11.00
2019-05-20T18:06:29.169Z,10.40
2019-05-20T18:09:00.390Z,12.70
2019-05-20T18:11:28.692Z,11.60
2019-05-20T18:13:56.812Z,11.53
2019-05-20T18:16:26.212Z,11.30
2019-05-20T18:18:54.453Z,11.70
2019-05-20T18:21:22.962Z,11.87
2019-05-20T18:23:51.801Z,11.70
2019-05-20T18:26:19.979Z,10.20
2019-05-20T18:28:48.334Z,11.50
2019-05-20T18:31:31.294Z,10.10
2019-05-20T18:33:47.094Z,9.33
2019-05-20T18:36:15.362Z,10.17
2019-05-20T18:38:43.802Z,11.27
2019-05-20T18:41:12.336Z,10.80
2019-05-20T18:43:40.995Z,9.70
2019-05-20T18:46:09.787Z,10.87
2019-05-20T18:48:37.907Z,9.30
2019-05-20T18:51:06.464Z,10.07
2019-05-20T18:53:34.601Z,10.40
2019-05-20T18:56:02.861Z,9.03
2019-05-20T18:58:31.447Z,11.53
2019-05-20T19:01:00.396Z,13.97
2019-05-20T19:03:29.055Z,14.77
2019-05-20T19:05:58.088Z,15.87
2019-05-20T19:08:26.482Z,16.10
2019-05-20T19:10:55.396Z,15.40
2019-05-20T19:13:23.584Z,15.97
2019-05-20T19:15:52.108Z,15.87
2019-05-20T19:18:22.077Z,16.13
2019-05-20T19:20:50.468Z,16.17
2019-05-20T19:23:18.906Z,16.03
2019-05-20T19:25:47.576Z,16.13
2019-05-20T19:28:15.741Z,16.63
2019-05-20T19:30:44.097Z,14.47
2019-05-20T19:33:14.180Z,15.23
2019-05-20T19:35:43.981Z,16.20
2019-05-20T19:38:12.487Z,15.47
2019-05-20T19:40:40.604Z,15.43
2019-05-20T19:43:08.780Z,14.10
2019-05-20T19:45:38.544Z,15.07
2019-05-20T19:48:07.389Z,16.03
2019-05-20T19:50:36.209Z,15.87
2019-05-20T19:53:04.576Z,15.27
2019-05-20T19:55:33.843Z,15.03
2019-05-20T19:58:02.007Z,15.07
2019-05-20T20:00:30.561Z,15.50
2019-05-20T20:02:58.911Z,15.73
2019-05-20T20:05:27.601Z,14.67
2019-05-20T20:07:56.871Z,17.83
2019-05-20T20:10:25.292Z,16.43
2019-05-20T20:12:53.823Z,18.13
2019-05-20T20:15:22.055Z,17.00
2019-05-20T20:17:50.220Z,17.07
2019-05-20T20:20:19.060Z,19.17
2019-05-20T20:22:47.427Z,19.63
2019-05-20T20:25:15.906Z,17.93
2019-05-20T20:27:44.402Z,17.77
2019-05-20T20:30:13.329Z,18.63
2019-05-20T20:32:41.814Z,17.83
2019-05-20T20:35:10.767Z,18.57
2019-05-20T20:37:39.495Z,19.37
2019-05-20T20:40:08.307Z,19.30
2019-05-20T20:42:36.464Z,18.17
2019-05-20T20:45:09.931Z,18.93
2019-05-20T20:47:41.919Z,19.37
2019-05-20T20:50:09.471Z,18.77
2019-05-20T20:52:39.163Z,19.23
2019-05-20T20:55:07.485Z,20.40
2019-05-20T20:57:35.644Z,19.67
2019-05-20T21:00:05.148Z,18.80
2019-05-20T21:02:33.366Z,20.30
2019-05-20T21:05:02.439Z,20.03
2019-05-20T21:07:30.688Z,20.33
2019-05-20T21:09:58.812Z,21.43
2019-05-20T21:12:27.385Z,19.87
2019-05-20T21:14:55.702Z,19.47
2019-05-20T21:17:23.956Z,20.20
2019-05-20T21:19:52.443Z,20.70
2019-05-20T21:22:20.795Z,20.57
2019-05-20T21:24:49.410Z,21.60
2019-05-20T21:27:18.110Z,21.33
2019-05-20T21:29:46.227Z,21.90
2019-05-20T21:32:15.135Z,20.17
2019-05-20T21:34:43.259Z,20.93
2019-05-20T21:37:11.781Z,20.40
2019-05-20T21:39:40.043Z,21.87
2019-05-20T21:42:08.199Z,22.07
2019-05-20T21:44:36.463Z,21.00
2019-05-20T21:47:04.733Z,21.77
2019-05-20T21:49:33.135Z,22.13
2019-05-20T21:52:01.279Z,22.17
2019-05-20T21:54:30.503Z,23.53
2019-05-20T21:56:58.612Z,22.93
2019-05-20T21:59:27.153Z,22.53
2019-05-20T22:01:55.601Z,22.20
2019-05-20T22:04:23.875Z,21.40
2019-05-20T22:06:51.994Z,21.60
2019-05-20T22:09:20.999Z,21.70
2019-05-20T22:11:49.575Z,20.17
2019-05-20T22:14:18.501Z,20.73
2019-05-20T22:16:46.988Z,20.77
2019-05-20T22:19:15.527Z,21.80
2019-05-20T22:21:50.922Z,21.47
2019-05-20T22:24:19.354Z,22.43
2019-05-20T22:26:47.783Z,21.63
2019-05-20T22:29:16.412Z,23.13
2019-05-20T22:31:45.816Z,20.93
2019-05-20T22:34:14.396Z,24.13
2019-05-20T22:36:42.686Z,23.30
2019-05-20T22:39:11.261Z,22.63
2019-05-20T22:41:39.416Z,21.87
2019-05-20T22:44:07.649Z,24.27
2019-05-20T22:46:36.283Z,24.93
2019-05-20T22:49:04.506Z,23.33
2019-05-20T22:51:33.158Z,23.93
2019-05-20T22:54:01.483Z,22.47
2019-05-20T22:56:29.789Z,23.03
2019-05-20T22:58:58.310Z,23.57
2019-05-20T23:01:26.498Z,23.30
2019-05-20T23:03:56.617Z,22.10
2019-05-20T23:06:25.159Z,23.40
2019-05-20T23:08:53.614Z,22.23
2019-05-20T23:11:22.139Z,23.20
2019-05-20T23:13:50.432Z,21.87
2019-05-20T23:16:19.300Z,23.13
2019-05-20T23:18:47.922Z,23.87
2019-05-20T23:21:16.376Z,22.97
2019-05-20T23:23:45.143Z,23.27
2019-05-20T23:26:13.975Z,23.57
2019-05-20T23:28:42.209Z,24.17
2019-05-20T23:31:10.477Z,22.97
2019-05-20T23:33:38.705Z,23.20
2019-05-20T23:36:07.216Z,23.93
2019-05-20T23:38:35.540Z,25.37
2019-05-20T23:41:04.245Z,24.83
2019-05-20T23:43:32.785Z,24.70
2019-05-20T23:46:01.239Z,25.67
2019-05-20T23:48:31.589Z,24.70
2019-05-20T23:51:00.065Z,24.30
2019-05-20T23:53:28.242Z,27.17
2019-05-20T23:55:56.664Z,26.40
2019-05-20T23:58:25.194Z,26.80
